Time;durP1;ratioP1;P1;durP2;ratioP2;P2;SDS_P1;SDS_P2;PMS_P1;PMS_P2;Temp;Humidity;BMP_temperature;BMP_pressure;BME280_temperature;BME280_humidity;BME280_pressure;Samples;Min_cycle;Max_cycle;Signal;HPM_P1;HPM_P2
2022/07/26 00:00:18;;;;;;;;;;;17.70;88.30;;;;;;5032918;28;19937;-85
2022/07/26 00:02:46;;;;;;;;;;;17.70;88.30;;;;;;5020343;28;19925;-86
2022/07/26 00:05:15;;;;;;;;;;;17.70;88.30;;;;;;5032287;28;19925;-85
2022/07/26 00:07:43;;;;;;;;;;;17.20;87.90;;;;;;5035773;28;19925;-84
2022/07/26 00:10:11;;;;;;;;;;;17.70;88.00;;;;;;5037639;28;20385;-86
2022/07/26 00:12:41;;;;;;;;;;;17.70;88.20;;;;;;5040343;28;19933;-86
2022/07/26 00:15:09;;;;;;;;;;;17.70;88.40;;;;;;5037912;28;20282;-85
2022/07/26 00:17:37;;;;;;;;;;;17.60;88.40;;;;;;5019980;28;19925;-85
2022/07/26 00:20:06;;;;;;;;;;;17.60;88.70;;;;;;5020417;28;19925;-87
2022/07/26 00:22:33;;;;;;;;;;;17.60;89.10;;;;;;5045521;28;19925;-85
2022/07/26 00:25:05;;;;;;;;;;;17.50;88.80;;;;;;5037183;28;19925;-84
2022/07/26 00:27:35;;;;;;;;;;;17.50;88.90;;;;;;5037370;28;19932;-85
2022/07/26 00:30:07;;;;;;;;;;;17.50;89.50;;;;;;5019946;28;20304;-87
2022/07/26 00:32:36;;;;;;;;;;;18.70;90.00;;;;;;5036724;28;20308;-86
2022/07/26 00:35:04;;;;;;;;;;;17.40;89.80;;;;;;5031132;28;19925;-85
2022/07/26 00:37:34;;;;;;;;;;;17.40;89.40;;;;;;5042123;28;19932;-86
2022/07/26 00:40:03;;;;;;;;;;;17.40;89.50;;;;;;5021842;28;19932;-87
2022/07/26 00:42:35;;;;;;;;;;;17.40;90.10;;;;;;5026765;28;19932;-87
2022/07/26 00:45:03;;;;;;;;;;;17.30;90.00;;;;;;5035111;28;19929;-86
2022/07/26 00:47:31;;;;;;;;;;;17.30;90.00;;;;;;5036133;28;19925;-85
2022/07/26 00:49:58;;;;;;;;;;;17.30;90.00;;;;;;5001556;28;20296;-87
2022/07/26 00:52:27;;;;;;;;;;;17.30;90.20;;;;;;5025529;28;19926;-87
2022/07/26 00:54:55;;;;;;;;;;;17.20;90.30;;;;;;5027892;28;19925;-88
2022/07/26 00:57:23;;;;;;;;;;;17.20;90.30;;;;;;5013169;28;19925;-88
2022/07/26 00:59:50;;;;;;;;;;;17.20;90.30;;;;;;5007936;28;19937;-87
2022/07/26 01:02:19;;;;;;;;;;;17.20;90.60;;;;;;5012297;28;19954;-88
2022/07/26 01:04:46;;;;;;;;;;;17.20;90.40;;;;;;5016973;28;19933;-86
2022/07/26 01:07:14;;;;;;;;;;;17.20;90.50;;;;;;5027105;28;20181;-86
2022/07/26 01:09:42;;;;;;;;;;;17.00;90.60;;;;;;5016284;28;19929;-88
2022/07/26 01:12:09;;;;;;;;;;;17.20;90.50;;;;;;5015229;28;20321;-87
2022/07/26 01:14:37;;;;;;;;;;;17.20;90.50;;;;;;5034487;28;20289;-87
2022/07/26 01:17:05;;;;;;;;;;;17.20;90.70;;;;;;5035377;28;19936;-86
2022/07/26 01:19:33;;;;;;;;;;;17.30;90.90;;;;;;5018308;28;20044;-86
2022/07/26 01:22:02;;;;;;;;;;;17.10;90.80;;;;;;5024065;28;19925;-86
2022/07/26 01:24:30;;;;;;;;;;;17.10;90.80;;;;;;5021625;28;20407;-85
2022/07/26 01:26:57;;;;;;;;;;;17.20;90.80;;;;;;5018887;28;19925;-87
2022/07/26 01:29:25;;;;;;;;;;;16.90;90.90;;;;;;5026760;28;19925;-86
2022/07/26 01:32:03;;;;;;;;;;;17.20;91.00;;;;;;5018098;28;20292;-86
2022/07/26 01:34:31;;;;;;;;;;;17.10;91.00;;;;;;5034153;28;20046;-85
2022/07/26 01:36:59;;;;;;;;;;;17.20;91.00;;;;;;5042089;28;19936;-85
2022/07/26 01:39:26;;;;;;;;;;;17.20;90.90;;;;;;5029444;28;19936;-85
2022/07/26 01:41:55;;;;;;;;;;;17.20;91.10;;;;;;5043752;28;19935;-86
2022/07/26 01:44:23;;;;;;;;;;;17.20;90.90;;;;;;5023729;28;19936;-85
2022/07/26 01:46:50;;;;;;;;;;;17.20;91.20;;;;;;5039551;28;20028;-87
2022/07/26 01:49:19;;;;;;;;;;;17.40;91.10;;;;;;5034765;28;19929;-85
2022/07/26 01:51:47;;;;;;;;;;;17.20;91.00;;;;;;5034978;28;19929;-85
2022/07/26 01:54:14;;;;;;;;;;;17.20;91.10;;;;;;5033608;28;19925;-86
2022/07/26 01:56:50;;;;;;;;;;;17.20;91.20;;;;;;5034344;28;20297;-86
2022/07/26 01:59:17;;;;;;;;;;;17.30;91.30;;;;;;5000181;28;19926;-85
2022/07/26 02:01:45;;;;;;;;;;;17.20;91.20;;;;;;5034354;28;19929;-86
2022/07/26 02:04:57;;;;;;;;;;;17.20;91.20;;;;;;5032702;28;19940;-87
2022/07/26 02:07:00;;;;;;;;;;;17.20;91.60;;;;;;5008524;28;19945;-87
2022/07/26 02:09:37;;;;;;;;;;;17.30;91.50;;;;;;5035496;28;20054;-86
2022/07/26 02:12:06;;;;;;;;;;;17.20;91.70;;;;;;5034704;28;19932;-85
2022/07/26 02:14:34;;;;;;;;;;;17.20;91.40;;;;;;5035410;28;19925;-86
2022/07/26 02:17:02;;;;;;;;;;;17.20;91.50;;;;;;5035313;28;19932;-85
2022/07/26 02:19:30;;;;;;;;;;;17.10;91.60;;;;;;5014564;28;19933;-86
2022/07/26 02:21:58;;;;;;;;;;;17.10;91.60;;;;;;5035277;28;19932;-86
2022/07/26 02:24:27;;;;;;;;;;;17.20;91.90;;;;;;5026451;28;19929;-85
2022/07/26 02:26:56;;;;;;;;;;;17.20;91.60;;;;;;5034252;28;20404;-85
2022/07/26 02:29:24;;;;;;;;;;;17.20;91.60;;;;;;5015328;28;20304;-85
2022/07/26 02:31:56;;;;;;;;;;;17.10;91.70;;;;;;5019242;28;19932;-87
2022/07/26 02:34:23;;;;;;;;;;;17.20;91.80;;;;;;5033099;28;19929;-86
2022/07/26 02:36:51;;;;;;;;;;;17.30;91.70;;;;;;5015965;28;19925;-86
2022/07/26 02:39:19;;;;;;;;;;;17.20;91.80;;;;;;5017342;28;19929;-85
2022/07/26 02:41:46;;;;;;;;;;;17.20;91.80;;;;;;5033744;28;19929;-85
2022/07/26 02:44:14;;;;;;;;;;;16.90;91.70;;;;;;5034008;28;19929;-85
2022/07/26 02:46:42;;;;;;;;;;;17.20;92.00;;;;;;5019520;28;19933;-86
2022/07/26 02:49:09;;;;;;;;;;;16.80;91.80;;;;;;5027938;28;20141;-86
2022/07/26 02:51:37;;;;;;;;;;;17.30;91.90;;;;;;4997871;28;19936;-86
2022/07/26 02:54:04;;;;;;;;;;;17.20;92.10;;;;;;5033905;28;19925;-85
2022/07/26 02:56:33;;;;;;;;;;;17.20;92.40;;;;;;5034542;28;19932;-85
2022/07/26 02:59:01;;;;;;;;;;;17.10;92.30;;;;;;5032604;28;19929;-85
2022/07/26 03:01:29;;;;;;;;;;;17.10;92.60;;;;;;5023781;28;19929;-86
2022/07/26 03:03:57;;;;;;;;;;;17.10;92.50;;;;;;4998459;28;19929;-85
2022/07/26 03:06:25;;;;;;;;;;;17.10;92.60;;;;;;5003606;28;19925;-86
2022/07/26 03:08:53;;;;;;;;;;;16.30;92.40;;;;;;5017681;28;19926;-85
2022/07/26 03:11:20;;;;;;;;;;;15.80;92.30;;;;;;5011615;28;19930;-85
2022/07/26 03:13:48;;;;;;;;;;;17.10;92.60;;;;;;4994614;28;19929;-85
2022/07/26 03:16:15;;;;;;;;;;;17.20;92.90;;;;;;5008410;28;19925;-85
2022/07/26 03:18:49;;;;;;;;;;;17.10;92.80;;;;;;5009867;28;19925;-86
2022/07/26 03:21:16;;;;;;;;;;;17.10;92.80;;;;;;5012864;28;19926;-85
2022/07/26 03:23:44;;;;;;;;;;;17.10;93.10;;;;;;4995467;28;19925;-86
2022/07/26 03:26:11;;;;;;;;;;;17.00;93.10;;;;;;5013461;28;19926;-87
2022/07/26 03:28:41;;;;;;;;;;;17.00;93.00;;;;;;5014782;28;19925;-87
2022/07/26 03:31:09;;;;;;;;;;;17.10;93.20;;;;;;5025983;28;19929;-85
2022/07/26 03:33:37;;;;;;;;;;;17.00;93.10;;;;;;5017812;28;19929;-85
2022/07/26 03:36:09;;;;;;;;;;;17.00;93.30;;;;;;5002376;28;19936;-85
2022/07/26 03:38:39;;;;;;;;;;;16.40;93.20;;;;;;5018653;28;19944;-86
2022/07/26 03:41:06;;;;;;;;;;;17.10;93.60;;;;;;5017354;28;19926;-85
2022/07/26 03:43:39;;;;;;;;;;;16.90;93.90;;;;;;5018121;28;19944;-86
2022/07/26 03:46:06;;;;;;;;;;;17.00;93.90;;;;;;5013104;28;20024;-85
2022/07/26 03:48:34;;;;;;;;;;;17.00;94.00;;;;;;4999816;28;19925;-85
2022/07/26 03:51:01;;;;;;;;;;;16.90;94.20;;;;;;5011236;28;19933;-85
2022/07/26 03:53:29;;;;;;;;;;;16.90;94.40;;;;;;5015188;28;19933;-84
2022/07/26 03:58:43;;;;;;;;;;;16.80;94.70;;;;;;5031548;28;19929;-85
2022/07/26 04:01:10;;;;;;;;;;;16.80;95.00;;;;;;5013397;28;20349;-84
2022/07/26 04:03:38;;;;;;;;;;;16.80;94.90;;;;;;5014967;28;19926;-86
2022/07/26 04:06:14;;;;;;;;;;;16.70;95.10;;;;;;5007173;28;20232;-84
2022/07/26 04:08:43;;;;;;;;;;;16.70;95.00;;;;;;5012758;28;19952;-85
2022/07/26 04:11:11;;;;;;;;;;;16.80;95.00;;;;;;5012964;28;19948;-85
2022/07/26 04:13:38;;;;;;;;;;;16.70;95.00;;;;;;5019478;28;19929;-86
2022/07/26 04:16:06;;;;;;;;;;;16.80;95.20;;;;;;5018524;28;19925;-86
2022/07/26 04:18:36;;;;;;;;;;;16.70;95.10;;;;;;5009254;28;19933;-85
2022/07/26 04:21:04;;;;;;;;;;;16.80;95.40;;;;;;5015079;28;19925;-86
2022/07/26 04:23:31;;;;;;;;;;;16.80;95.70;;;;;;5007829;28;19929;-85
2022/07/26 04:26:00;;;;;;;;;;;16.70;95.80;;;;;;5005662;28;19933;-86
2022/07/26 04:28:28;;;;;;;;;;;16.70;95.90;;;;;;5009362;28;20817;-85
2022/07/26 04:30:57;;;;;;;;;;;16.70;96.20;;;;;;5019470;28;19933;-85
2022/07/26 04:33:24;;;;;;;;;;;16.60;96.20;;;;;;5009205;28;19932;-86
2022/07/26 04:35:52;;;;;;;;;;;16.60;96.20;;;;;;5018804;28;20384;-86
2022/07/26 04:38:21;;;;;;;;;;;16.60;96.40;;;;;;5018686;28;20177;-86
2022/07/26 04:40:50;;;;;;;;;;;16.60;96.50;;;;;;5018324;28;20340;-85
2022/07/26 04:43:18;;;;;;;;;;;16.70;96.50;;;;;;5031214;28;19937;-85
2022/07/26 04:45:45;;;;;;;;;;;16.60;96.20;;;;;;5009003;28;19926;-84
2022/07/26 04:48:13;;;;;;;;;;;16.60;96.40;;;;;;5019223;28;19941;-85
2022/07/26 04:50:42;;;;;;;;;;;16.60;96.30;;;;;;5017908;28;19933;-86
2022/07/26 04:53:10;;;;;;;;;;;16.60;96.40;;;;;;5017409;28;19936;-85
2022/07/26 04:55:39;;;;;;;;;;;16.60;96.60;;;;;;5001751;28;19933;-85
2022/07/26 04:58:09;;;;;;;;;;;16.50;96.60;;;;;;5017823;28;19929;-85
2022/07/26 05:00:38;;;;;;;;;;;16.60;96.90;;;;;;4995126;28;19925;-85
2022/07/26 05:03:25;;;;;;;;;;;16.50;97.00;;;;;;5005107;28;19926;-86
2022/07/26 05:05:54;;;;;;;;;;;16.50;97.00;;;;;;5014564;28;20397;-86
2022/07/26 05:08:22;;;;;;;;;;;16.50;97.10;;;;;;4985280;28;19925;-85
2022/07/26 05:10:50;;;;;;;;;;;16.40;97.00;;;;;;5017124;28;20293;-85
2022/07/26 05:13:26;;;;;;;;;;;16.50;97.10;;;;;;5015800;28;19925;-84
2022/07/26 05:15:59;;;;;;;;;;;16.40;97.50;;;;;;5015689;28;19929;-86
2022/07/26 05:18:30;;;;;;;;;;;16.50;97.50;;;;;;4662477;28;10000335;-84
2022/07/26 05:21:17;;;;;;;;;;;16.50;97.50;;;;;;5015523;28;19925;-86
2022/07/26 05:23:45;;;;;;;;;;;16.80;97.50;;;;;;5019375;28;20376;-85
2022/07/26 05:26:13;;;;;;;;;;;16.50;97.50;;;;;;5005361;28;19932;-86
2022/07/26 05:28:40;;;;;;;;;;;16.50;97.30;;;;;;5028617;28;19921;-85
2022/07/26 05:31:08;;;;;;;;;;;16.50;97.50;;;;;;5023272;28;19937;-85
2022/07/26 05:33:36;;;;;;;;;;;16.60;97.60;;;;;;5025069;28;19926;-85
2022/07/26 05:36:13;;;;;;;;;;;16.60;97.60;;;;;;5020160;28;19930;-85
2022/07/26 05:38:44;;;;;;;;;;;16.60;97.30;;;;;;5002799;28;19929;-87
2022/07/26 05:41:16;;;;;;;;;;;16.60;98.20;;;;;;5032888;28;19934;-85
2022/07/26 05:43:44;;;;;;;;;;;16.50;97.80;;;;;;5007264;28;19930;-85
2022/07/26 05:46:17;;;;;;;;;;;16.90;98.40;;;;;;5017512;28;19930;-85
2022/07/26 05:48:46;;;;;;;;;;;16.50;98.20;;;;;;5013759;28;19930;-86
2022/07/26 05:51:17;;;;;;;;;;;16.50;98.10;;;;;;5019367;28;20126;-85
2022/07/26 05:53:46;;;;;;;;;;;16.40;98.10;;;;;;5007189;28;19925;-85
2022/07/26 05:56:13;;;;;;;;;;;16.40;98.50;;;;;;5019047;28;19941;-86
2022/07/26 05:58:42;;;;;;;;;;;16.40;98.60;;;;;;5017964;28;19930;-86
2022/07/26 06:01:10;;;;;;;;;;;16.40;98.50;;;;;;5016583;28;19933;-85
2022/07/26 06:03:38;;;;;;;;;;;16.40;98.60;;;;;;5014125;28;19937;-87
2022/07/26 06:06:07;;;;;;;;;;;16.40;98.60;;;;;;4997470;28;19936;-86
2022/07/26 06:08:34;;;;;;;;;;;16.40;98.60;;;;;;5024320;28;19929;-86
2022/07/26 06:11:02;;;;;;;;;;;16.50;98.40;;;;;;5035584;28;19933;-87
2022/07/26 06:13:30;;;;;;;;;;;16.50;98.30;;;;;;5035407;28;19932;-87
2022/07/26 06:15:57;;;;;;;;;;;16.50;98.80;;;;;;5018453;28;20000;-87
2022/07/26 06:18:25;;;;;;;;;;;16.50;99.30;;;;;;5031656;28;19925;-86
2022/07/26 06:20:54;;;;;;;;;;;16.40;99.20;;;;;;5015157;28;19936;-85
2022/07/26 06:23:26;;;;;;;;;;;16.40;99.60;;;;;;4989127;28;19929;-85
2022/07/26 06:26:02;;;;;;;;;;;16.40;99.70;;;;;;5034155;28;19925;-86
2022/07/26 06:28:31;;;;;;;;;;;16.40;99.70;;;;;;5033988;28;19944;-85
2022/07/26 06:31:01;;;;;;;;;;;16.40;99.80;;;;;;5035138;28;19925;-85
2022/07/26 06:33:29;;;;;;;;;;;16.50;99.50;;;;;;5000443;28;19929;-85
2022/07/26 06:35:59;;;;;;;;;;;16.50;99.30;;;;;;5029466;28;19929;-85
2022/07/26 06:38:27;;;;;;;;;;;16.50;99.40;;;;;;5000716;28;20532;-85
2022/07/26 06:40:57;;;;;;;;;;;16.60;99.60;;;;;;4999263;28;19945;-85
2022/07/26 06:43:27;;;;;;;;;;;16.60;99.30;;;;;;5016203;28;19932;-86
2022/07/26 06:45:56;;;;;;;;;;;16.70;99.40;;;;;;5016615;28;20376;-86
2022/07/26 06:48:24;;;;;;;;;;;16.70;99.60;;;;;;5033436;28;19937;-85
2022/07/26 06:50:53;;;;;;;;;;;16.80;99.10;;;;;;5017566;28;20444;-86
2022/07/26 06:53:21;;;;;;;;;;;16.80;98.90;;;;;;5032740;28;19925;-86
2022/07/26 06:55:49;;;;;;;;;;;16.90;99.00;;;;;;5028518;28;19932;-85
2022/07/26 06:58:16;;;;;;;;;;;16.90;99.00;;;;;;5031833;28;19929;-85
2022/07/26 07:00:44;;;;;;;;;;;17.00;98.90;;;;;;5032107;28;20500;-87
2022/07/26 07:03:12;;;;;;;;;;;17.00;99.00;;;;;;5015264;28;19956;-86
2022/07/26 07:05:39;;;;;;;;;;;17.00;98.90;;;;;;5036832;28;19925;-87
2022/07/26 07:08:07;;;;;;;;;;;17.10;98.90;;;;;;5035492;28;19936;-87
2022/07/26 07:10:36;;;;;;;;;;;17.10;98.70;;;;;;5000122;28;19929;-86
2022/07/26 07:13:05;;;;;;;;;;;17.20;98.80;;;;;;5002139;28;19926;-86
2022/07/26 07:15:34;;;;;;;;;;;17.20;98.50;;;;;;5032883;28;19940;-87
2022/07/26 07:18:05;;;;;;;;;;;17.30;98.50;;;;;;5032558;28;19932;-86
2022/07/26 07:20:36;;;;;;;;;;;17.40;98.30;;;;;;5036255;28;19929;-86
2022/07/26 07:23:04;;;;;;;;;;;17.50;98.30;;;;;;5018922;28;19925;-87
2022/07/26 07:25:32;;;;;;;;;;;17.60;98.40;;;;;;5037395;28;19925;-85
2022/07/26 07:27:59;;;;;;;;;;;17.70;97.90;;;;;;5036182;28;19928;-86
2022/07/26 07:30:27;;;;;;;;;;;17.70;97.70;;;;;;5027036;28;19925;-86
2022/07/26 07:32:55;;;;;;;;;;;17.80;97.50;;;;;;5015723;28;19929;-86
2022/07/26 07:35:23;;;;;;;;;;;17.80;97.40;;;;;;5016194;28;19936;-86
2022/07/26 07:37:58;;;;;;;;;;;17.70;97.40;;;;;;5014137;28;19940;-85
2022/07/26 07:40:26;;;;;;;;;;;17.70;97.70;;;;;;5035042;28;19925;-86
2022/07/26 07:42:57;;;;;;;;;;;17.60;97.40;;;;;;5018207;28;19925;-87
2022/07/26 07:45:24;;;;;;;;;;;17.60;97.50;;;;;;5032628;28;19925;-86
2022/07/26 07:47:52;;;;;;;;;;;17.60;97.60;;;;;;5035571;28;20387;-86
2022/07/26 07:50:21;;;;;;;;;;;17.60;97.60;;;;;;5018678;28;19941;-85
2022/07/26 07:52:54;;;;;;;;;;;17.70;97.30;;;;;;5037402;28;20416;-86
2022/07/26 07:55:24;;;;;;;;;;;17.70;97.30;;;;;;5038131;28;19929;-85
2022/07/26 07:58:10;;;;;;;;;;;17.70;97.20;;;;;;5011664;28;19936;-87
2022/07/26 08:00:41;;;;;;;;;;;17.80;97.30;;;;;;5003223;28;20416;-86
2022/07/26 08:03:08;;;;;;;;;;;17.80;97.10;;;;;;5017360;28;19929;-86
2022/07/26 08:05:38;;;;;;;;;;;17.90;97.10;;;;;;5019629;28;19925;-87
2022/07/26 08:08:07;;;;;;;;;;;17.90;97.20;;;;;;4999694;28;19925;-86
2022/07/26 08:10:37;;;;;;;;;;;18.00;97.10;;;;;;5005469;28;20284;-85
2022/07/26 08:13:15;;;;;;;;;;;19.40;97.60;;;;;;5021131;28;19929;-86
2022/07/26 08:15:51;;;;;;;;;;;17.80;97.30;;;;;;5018236;28;19925;-86
2022/07/26 08:18:21;;;;;;;;;;;17.70;97.30;;;;;;5020648;28;19925;-85
2022/07/26 08:20:51;;;;;;;;;;;17.70;97.40;;;;;;5039810;28;19937;-86
2022/07/26 08:23:19;;;;;;;;;;;17.60;97.40;;;;;;5019907;28;19935;-86
2022/07/26 08:25:47;;;;;;;;;;;17.60;97.50;;;;;;5039502;28;19929;-86
2022/07/26 08:28:23;;;;;;;;;;;17.00;97.50;;;;;;5041350;28;19933;-86
2022/07/26 08:31:11;;;;;;;;;;;17.60;97.60;;;;;;5025677;28;19929;-86
2022/07/26 08:33:39;;;;;;;;;;;17.70;97.60;;;;;;5036483;28;19936;-86
2022/07/26 08:36:14;;;;;;;;;;;16.60;97.10;;;;;;5030090;28;19939;-85
2022/07/26 08:38:43;;;;;;;;;;;17.80;97.30;;;;;;5050813;28;19917;-86
2022/07/26 08:41:16;;;;;;;;;;;17.90;97.20;;;;;;5024328;28;19933;-87
2022/07/26 08:43:45;;;;;;;;;;;18.00;97.00;;;;;;5037841;28;20361;-86
2022/07/26 08:46:21;;;;;;;;;;;16.30;96.50;;;;;;5017103;28;19929;-86
2022/07/26 08:48:53;;;;;;;;;;;18.20;96.90;;;;;;5028329;28;19952;-86
2022/07/26 08:51:25;;;;;;;;;;;18.40;96.60;;;;;;5033078;28;19940;-86
2022/07/26 08:53:55;;;;;;;;;;;18.50;96.30;;;;;;5024333;28;20036;-88
2022/07/26 08:56:33;;;;;;;;;;;18.70;95.90;;;;;;5024459;28;20408;-85
2022/07/26 08:59:05;;;;;;;;;;;18.80;95.80;;;;;;5002637;28;19929;-88
2022/07/26 09:01:48;;;;;;;;;;;18.90;95.70;;;;;;5002574;28;19929;-86
2022/07/26 09:04:16;;;;;;;;;;;19.20;95.60;;;;;;5044783;28;20091;-86
2022/07/26 09:07:05;;;;;;;;;;;19.30;94.70;;;;;;5049337;28;19925;-87
2022/07/26 09:09:33;;;;;;;;;;;19.50;94.30;;;;;;5025098;28;19925;-86
2022/07/26 09:12:18;;;;;;;;;;;19.70;94.60;;;;;;5046275;28;19928;-86
2022/07/26 09:14:46;;;;;;;;;;;19.80;94.10;;;;;;5019770;28;19925;-87
2022/07/26 09:17:18;;;;;;;;;;;20.00;94.10;;;;;;5032313;28;19936;-87
2022/07/26 09:20:01;;;;;;;;;;;20.00;93.80;;;;;;5033805;28;19936;-87
2022/07/26 09:22:30;;;;;;;;;;;20.00;93.40;;;;;;5047643;28;19929;-87
2022/07/26 09:25:00;;;;;;;;;;;19.90;93.30;;;;;;5045605;28;19925;-86
2022/07/26 09:27:43;;;;;;;;;;;19.90;93.90;;;;;;5044976;28;19935;-87
2022/07/26 09:30:12;;;;;;;;;;;19.80;93.50;;;;;;5043853;28;19936;-87
2022/07/26 09:32:54;;;;;;;;;;;19.80;93.50;;;;;;5038531;28;19932;-87
2022/07/26 09:35:26;;;;;;;;;;;19.70;93.60;;;;;;5023615;28;20307;-85
2022/07/26 09:38:18;;;;;;;;;;;19.60;93.80;;;;;;5040047;28;19935;-86
2022/07/26 09:40:46;;;;;;;;;;;19.60;93.90;;;;;;5020565;28;19940;-87
2022/07/26 09:43:18;;;;;;;;;;;19.60;94.00;;;;;;5038350;28;19932;-85
2022/07/26 09:46:04;;;;;;;;;;;19.60;94.00;;;;;;5037457;28;19940;-86
2022/07/26 09:48:32;;;;;;;;;;;19.80;93.80;;;;;;5038892;28;20360;-86
2022/07/26 09:51:39;;;;;;;;;;;19.60;93.80;;;;;;5004375;28;19925;-87
2022/07/26 09:54:09;;;;;;;;;;;19.70;93.70;;;;;;5025676;28;19929;-87
2022/07/26 09:56:55;;;;;;;;;;;20.20;93.50;;;;;;5021687;28;19925;-87
2022/07/26 09:59:24;;;;;;;;;;;19.90;93.20;;;;;;5034771;28;19933;-86
2022/07/26 10:01:52;;;;;;;;;;;19.90;93.20;;;;;;5039046;28;19927;-85
2022/07/26 10:04:20;;;;;;;;;;;19.90;93.10;;;;;;5004121;28;20498;-85
2022/07/26 10:06:50;;;;;;;;;;;19.90;93.10;;;;;;5038388;28;19949;-87
2022/07/26 10:09:18;;;;;;;;;;;19.90;93.00;;;;;;5000847;28;19933;-86
2022/07/26 10:11:50;;;;;;;;;;;19.90;92.90;;;;;;5019663;28;19925;-86
2022/07/26 10:17:28;;;;;;;;;;;19.90;92.90;;;;;;5022628;28;20392;-85
2022/07/26 10:20:10;;;;;;;;;;;20.10;92.80;;;;;;5036070;28;19940;-87
2022/07/26 10:22:51;;;;;;;;;;;20.10;92.80;;;;;;5027679;28;20359;-88
2022/07/26 10:25:24;;;;;;;;;;;20.10;92.80;;;;;;5010226;28;19929;-87
2022/07/26 10:27:54;;;;;;;;;;;20.30;92.80;;;;;;5033016;28;19944;-86
2022/07/26 10:30:22;;;;;;;;;;;20.40;92.20;;;;;;5044800;28;19929;-86
2022/07/26 10:32:53;;;;;;;;;;;20.50;92.10;;;;;;5040583;28;19929;-89
2022/07/26 10:35:40;;;;;;;;;;;20.60;92.00;;;;;;5018307;28;19925;-86
2022/07/26 10:38:11;;;;;;;;;;;20.60;90.90;;;;;;5039450;28;19936;-87
2022/07/26 10:40:54;;;;;;;;;;;21.00;91.60;;;;;;5002177;28;19932;-87
2022/07/26 10:43:24;;;;;;;;;;;21.20;91.10;;;;;;5032338;28;19929;-87
2022/07/26 10:46:12;;;;;;;;;;;20.30;90.70;;;;;;5045608;28;19933;-88
2022/07/26 10:49:03;;;;;;;;;;;21.50;90.70;;;;;;5023088;28;19940;-89
2022/07/26 10:51:34;;;;;;;;;;;21.50;90.80;;;;;;5023693;28;20287;-86
2022/07/26 10:54:16;;;;;;;;;;;21.60;90.70;;;;;;5021239;28;19936;-87
2022/07/26 10:56:47;;;;;;;;;;;21.60;90.10;;;;;;5019387;28;20328;-86
2022/07/26 10:59:29;;;;;;;;;;;21.60;90.60;;;;;;5026849;28;19948;-85
2022/07/26 11:02:22;;;;;;;;;;;21.60;90.00;;;;;;5048423;28;19925;-86
2022/07/26 11:04:57;;;;;;;;;;;21.60;89.80;;;;;;5017489;28;20312;-86
2022/07/26 11:07:28;;;;;;;;;;;21.60;89.30;;;;;;5048364;28;19920;-86
2022/07/26 11:10:03;;;;;;;;;;;21.70;89.40;;;;;;5059220;28;19935;-86
2022/07/26 11:12:31;;;;;;;;;;;21.80;89.10;;;;;;5035829;28;19925;-87
2022/07/26 11:15:13;;;;;;;;;;;21.90;89.50;;;;;;5021653;28;20202;-86
2022/07/26 11:17:43;;;;;;;;;;;22.00;88.30;;;;;;5045034;28;19933;-84
2022/07/26 11:20:25;;;;;;;;;;;22.00;89.30;;;;;;5044721;28;19932;-87
2022/07/26 11:23:02;;;;;;;;;;;22.20;88.10;;;;;;5028709;28;19932;-86
2022/07/26 11:25:34;;;;;;;;;;;22.20;87.40;;;;;;5047865;28;19932;-86
2022/07/26 11:28:20;;;;;;;;;;;22.30;87.10;;;;;;5023318;28;19933;-86
2022/07/26 11:30:57;;;;;;;;;;;22.40;87.10;;;;;;5034215;28;19929;-87
2022/07/26 11:33:40;;;;;;;;;;;22.50;85.70;;;;;;5039222;28;19932;-88
2022/07/26 11:36:17;;;;;;;;;;;22.40;86.50;;;;;;5005563;28;19933;-88
2022/07/26 11:38:52;;;;;;;;;;;22.40;86.50;;;;;;5042609;28;19925;-86
2022/07/26 11:41:23;;;;;;;;;;;22.40;86.00;;;;;;5016887;28;19933;-87
2022/07/26 11:44:05;;;;;;;;;;;22.40;86.30;;;;;;5044612;28;19925;-86
2022/07/26 11:46:34;;;;;;;;;;;22.40;86.70;;;;;;5041788;28;19929;-86
2022/07/26 11:49:32;;;;;;;;;;;22.40;85.80;;;;;;5044790;28;19929;-87
2022/07/26 11:52:30;;;;;;;;;;;22.40;86.30;;;;;;5028019;28;19925;-86
2022/07/26 11:54:58;;;;;;;;;;;22.50;85.60;;;;;;5038671;28;20013;-86
2022/07/26 11:57:30;;;;;;;;;;;22.50;85.40;;;;;;5049584;28;19991;-87
2022/07/26 12:00:00;;;;;;;;;;;22.50;83.80;;;;;;5027169;28;20550;-87
2022/07/26 12:02:38;;;;;;;;;;;22.50;85.30;;;;;;5046894;28;19925;-87
2022/07/26 12:05:16;;;;;;;;;;;22.50;84.70;;;;;;5044955;28;19929;-86
2022/07/26 12:07:58;;;;;;;;;;;22.40;84.90;;;;;;5018340;28;19932;-85
2022/07/26 12:10:26;;;;;;;;;;;22.30;83.90;;;;;;5047476;28;19935;-84
2022/07/26 12:13:06;;;;;;;;;;;22.20;83.70;;;;;;5027268;28;19933;-86
2022/07/26 12:15:44;;;;;;;;;;;22.20;84.40;;;;;;5030035;28;19957;-86
2022/07/26 12:18:28;;;;;;;;;;;22.10;84.80;;;;;;5044473;28;19933;-85
2022/07/26 12:21:02;;;;;;;;;;;22.10;84.60;;;;;;5022180;28;20289;-88
2022/07/26 12:23:51;;;;;;;;;;;22.00;84.40;;;;;;5025838;28;19933;-87
2022/07/26 12:26:22;;;;;;;;;;;22.20;84.80;;;;;;5042690;28;20376;-87
2022/07/26 12:28:54;;;;;;;;;;;21.40;83.70;;;;;;5043756;28;19932;-87
2022/07/26 12:31:28;;;;;;;;;;;21.90;84.30;;;;;;5028192;28;20036;-86
2022/07/26 12:34:00;;;;;;;;;;;21.80;83.90;;;;;;5004212;28;19925;-87
2022/07/26 12:36:32;;;;;;;;;;;21.90;83.70;;;;;;5015565;28;19932;-86
2022/07/26 12:39:17;;;;;;;;;;;21.90;84.90;;;;;;5053456;28;19925;-87
2022/07/26 12:41:49;;;;;;;;;;;21.90;84.50;;;;;;5014273;28;19929;-86
2022/07/26 12:44:17;;;;;;;;;;;22.00;84.60;;;;;;5008728;28;19933;-86
2022/07/26 12:46:48;;;;;;;;;;;21.90;84.00;;;;;;5023367;28;19933;-85
2022/07/26 12:49:19;;;;;;;;;;;21.90;83.90;;;;;;5049079;28;19929;-87
2022/07/26 12:51:49;;;;;;;;;;;22.00;83.40;;;;;;5029289;28;20000;-88
2022/07/26 12:54:16;;;;;;;;;;;21.90;82.80;;;;;;5023594;28;19936;-88
2022/07/26 12:56:46;;;;;;;;;;;21.90;83.80;;;;;;5009646;28;19943;-86
2022/07/26 12:59:18;;;;;;;;;;;21.90;83.40;;;;;;5032315;28;19933;-87
2022/07/26 13:01:46;;;;;;;;;;;21.90;82.90;;;;;;5011426;28;19952;-90
2022/07/26 13:04:18;;;;;;;;;;;21.90;84.70;;;;;;5027125;28;19909;-91
2022/07/26 13:06:51;;;;;;;;;;;21.90;84.20;;;;;;5023543;28;19929;-87
2022/07/26 13:09:20;;;;;;;;;;;22.00;84.20;;;;;;5049562;28;20182;-87
2022/07/26 13:11:49;;;;;;;;;;;21.90;83.90;;;;;;5036927;28;19933;-88
2022/07/26 13:14:18;;;;;;;;;;;21.30;83.50;;;;;;5037134;28;19940;-88
2022/07/26 13:16:50;;;;;;;;;;;22.20;82.80;;;;;;5042918;28;19925;-87
2022/07/26 13:19:18;;;;;;;;;;;22.30;82.90;;;;;;5029135;28;19933;-86
2022/07/26 13:21:47;;;;;;;;;;;22.40;83.80;;;;;;5020781;28;20169;-86
2022/07/26 13:24:21;;;;;;;;;;;22.50;82.20;;;;;;5018716;28;20039;-87
2022/07/26 13:26:56;;;;;;;;;;;22.60;82.50;;;;;;5006558;28;19929;-86
2022/07/26 13:29:27;;;;;;;;;;;22.60;81.90;;;;;;5021594;28;19921;-86
2022/07/26 13:31:58;;;;;;;;;;;22.60;81.00;;;;;;5035016;28;19925;-86
2022/07/26 13:34:28;;;;;;;;;;;22.50;81.00;;;;;;5028870;28;19925;-86
2022/07/26 13:37:04;;;;;;;;;;;22.50;81.60;;;;;;5032532;28;19926;-87
2022/07/26 13:39:35;;;;;;;;;;;22.40;81.40;;;;;;5018688;28;19932;-86
2022/07/26 13:42:04;;;;;;;;;;;22.40;81.30;;;;;;5017890;28;19936;-85
2022/07/26 13:44:34;;;;;;;;;;;22.30;81.60;;;;;;5017414;28;19944;-86
2022/07/26 13:47:01;;;;;;;;;;;22.30;81.80;;;;;;5003410;28;19925;-86
2022/07/26 13:49:32;;;;;;;;;;;22.30;81.50;;;;;;5027928;28;19925;-86
2022/07/26 13:52:00;;;;;;;;;;;22.20;81.30;;;;;;4993717;28;19925;-87
2022/07/26 13:54:31;;;;;;;;;;;22.20;81.80;;;;;;5024732;28;20361;-86
2022/07/26 13:57:01;;;;;;;;;;;22.20;81.90;;;;;;5023533;28;20486;-87
2022/07/26 13:59:30;;;;;;;;;;;22.10;81.90;;;;;;5033195;28;19940;-86
2022/07/26 14:01:57;;;;;;;;;;;22.10;82.20;;;;;;5046968;28;19925;-87
2022/07/26 14:04:26;;;;;;;;;;;22.20;81.30;;;;;;5029885;28;19925;-87
2022/07/26 14:06:55;;;;;;;;;;;22.20;80.80;;;;;;5024425;28;19925;-87
2022/07/26 14:09:32;;;;;;;;;;;22.30;81.70;;;;;;5031838;28;19944;-86
2022/07/26 14:12:06;;;;;;;;;;;22.40;81.50;;;;;;5036414;28;19925;-87
2022/07/26 14:14:36;;;;;;;;;;;22.10;80.60;;;;;;5049551;28;19928;-86
2022/07/26 14:17:03;;;;;;;;;;;22.60;80.40;;;;;;5049217;28;19925;-86
2022/07/26 14:19:31;;;;;;;;;;;22.70;80.30;;;;;;5049781;28;19940;-86
2022/07/26 14:21:59;;;;;;;;;;;22.80;79.90;;;;;;5052052;28;19932;-86
2022/07/26 14:24:27;;;;;;;;;;;22.90;79.80;;;;;;5031131;28;20391;-87
2022/07/26 14:26:59;;;;;;;;;;;23.00;79.50;;;;;;5050032;28;19935;-87
2022/07/26 14:29:30;;;;;;;;;;;23.20;79.30;;;;;;5029458;28;20451;-88
2022/07/26 14:32:01;;;;;;;;;;;23.30;77.80;;;;;;5028161;28;19928;-87
2022/07/26 14:34:29;;;;;;;;;;;23.50;78.20;;;;;;5046126;28;19932;-87
2022/07/26 14:36:57;;;;;;;;;;;23.60;78.30;;;;;;5048880;28;19925;-88
2022/07/26 14:39:24;;;;;;;;;;;23.80;77.60;;;;;;5030660;28;19951;-85
2022/07/26 14:41:54;;;;;;;;;;;24.00;76.90;;;;;;5035789;28;19933;-83
2022/07/26 14:44:24;;;;;;;;;;;24.20;77.00;;;;;;5050338;28;19935;-87